Time;durP1;ratioP1;P1;durP2;ratioP2;P2;SDS_P1;SDS_P2;PMS_P1;PMS_P2;Temp;Humidity;BMP_temperature;BMP_pressure;BME280_temperature;BME280_humidity;BME280_pressure;Samples;Min_cycle;Max_cycle;Signal;HPM_P1;HPM_P2
2022/10/03 00:01:39;;;;;;;21.97;13.50;;;10.50;99.90;;;;;;4976853;28;20207;-66
2022/10/03 00:04:19;;;;;;;22.83;13.10;;;10.50;99.90;;;;;;4976811;28;20191;-64
2022/10/03 00:06:57;;;;;;;22.55;13.60;;;10.50;99.90;;;;;;4976477;28;20582;-65
2022/10/03 00:09:39;;;;;;;21.33;14.67;;;10.50;99.90;;;;;;4976672;28;20205;-67
2022/10/03 00:12:18;;;;;;;23.60;14.20;;;10.50;99.90;;;;;;4976717;28;20187;-64
2022/10/03 00:14:59;;;;;;;25.47;14.07;;;10.50;99.90;;;;;;4976270;28;20654;-65
2022/10/03 00:17:38;;;;;;;23.17;13.23;;;10.50;99.90;;;;;;4976416;28;20215;-67
2022/10/03 00:20:34;;;;;;;24.93;14.47;;;10.40;99.90;;;;;;4976443;28;20549;-64
2022/10/03 00:23:09;;;;;;;23.70;12.83;;;10.50;99.90;;;;;;4976270;28;20194;-64
2022/10/03 00:25:47;;;;;;;29.17;13.77;;;10.50;99.90;;;;;;4976241;28;20225;-64
2022/10/03 00:28:27;;;;;;;28.17;14.37;;;10.50;99.90;;;;;;4976242;28;20553;-63
2022/10/03 00:31:08;;;;;;;23.43;14.00;;;10.40;99.90;;;;;;4976069;28;20203;-65
2022/10/03 00:33:50;;;;;;;20.47;14.13;;;10.40;99.90;;;;;;4976082;28;20186;-65
2022/10/03 00:36:28;;;;;;;23.20;13.60;;;10.40;99.90;;;;;;4975932;28;20214;-65
2022/10/03 00:39:20;;;;;;;23.37;13.97;;;10.40;99.90;;;;;;5036443;23;20234;-66
2022/10/03 00:42:34;;;;;;;21.53;12.93;;;10.40;99.90;;;;;;4995364;28;20201;-66
2022/10/03 00:45:45;;;;;;;23.33;12.97;;;10.40;99.90;;;;;;4968598;28;20225;-66
2022/10/03 00:48:46;;;;;;;25.50;13.63;;;10.30;99.90;;;;;;4989944;28;20209;-66
2022/10/03 00:51:38;;;;;;;27.60;13.90;;;10.20;99.90;;;;;;4973941;28;20218;-66
2022/10/03 00:54:33;;;;;;;24.20;14.37;;;10.20;99.90;;;;;;4967878;28;20198;-63
2022/10/03 00:57:18;;;;;;;23.47;13.83;;;10.20;99.90;;;;;;4975646;28;20211;-63
2022/10/03 01:00:06;;;;;;;23.93;14.67;;;10.10;99.90;;;;;;4974837;28;20209;-63
2022/10/03 01:02:46;;;;;;;25.60;14.90;;;10.10;99.90;;;;;;4975610;28;20206;-64
2022/10/03 01:05:24;;;;;;;31.97;16.30;;;10.10;99.90;;;;;;4974983;28;20226;-62
2022/10/03 01:08:17;;;;;;;29.60;15.47;;;10.00;99.90;;;;;;4975820;28;20186;-62
2022/10/03 01:10:52;;;;;;;24.10;15.37;;;10.10;99.90;;;;;;4973425;28;20232;-63
2022/10/03 01:13:32;;;;;;;28.00;16.03;;;10.10;99.90;;;;;;4975517;28;20190;-64
2022/10/03 01:16:12;;;;;;;29.00;15.97;;;10.10;99.90;;;;;;4975421;28;20225;-63
2022/10/03 01:19:00;;;;;;;30.63;16.30;;;10.10;99.90;;;;;;4975361;28;20214;-63
2022/10/03 01:21:40;;;;;;;27.37;15.43;;;10.10;99.90;;;;;;4973303;28;20195;-63
2022/10/03 01:24:39;;;;;;;26.03;15.10;;;10.10;99.90;;;;;;4975060;28;20205;-63
2022/10/03 01:27:11;;;;;;;25.10;14.70;;;10.10;99.90;;;;;;4965429;28;20226;-63
2022/10/03 01:32:41;;;;;;;31.63;15.37;;;10.00;99.90;;;;;;4955723;28;20275;-63
2022/10/03 01:35:21;;;;;;;35.90;16.37;;;10.00;99.90;;;;;;4960823;28;20236;-63
2022/10/03 01:38:00;;;;;;;30.73;16.67;;;10.00;99.90;;;;;;4972751;28;20214;-63
2022/10/03 01:40:35;;;;;;;30.20;16.40;;;10.00;99.90;;;;;;4973851;28;20201;-63
2022/10/03 01:43:14;;;;;;;33.20;16.47;;;10.00;99.90;;;;;;4972536;28;20186;-63
2022/10/03 01:45:52;;;;;;;26.97;16.33;;;10.10;99.90;;;;;;4972372;28;20603;-63
2022/10/03 01:48:28;;;;;;;35.60;15.97;;;10.10;99.90;;;;;;4973740;28;20226;-63
2022/10/03 01:51:03;;;;;;;26.50;15.30;;;10.10;99.90;;;;;;4974318;28;20198;-63
2022/10/03 01:53:46;;;;;;;31.10;16.87;;;10.10;99.90;;;;;;4974736;28;20646;-64
2022/10/03 01:56:25;;;;;;;32.80;16.90;;;10.10;99.90;;;;;;4974029;28;20214;-63
2022/10/03 01:59:02;;;;;;;37.17;15.53;;;10.10;99.90;;;;;;4974510;28;20214;-63
2022/10/03 02:01:45;;;;;;;23.87;16.40;;;10.10;99.90;;;;;;4974743;28;20187;-63
2022/10/03 02:04:22;;;;;;;30.20;15.03;;;10.10;99.90;;;;;;4974524;28;20186;-63
2022/10/03 02:07:00;;;;;;;24.27;15.43;;;10.10;99.90;;;;;;4974515;28;20291;-63
2022/10/03 02:09:36;;;;;;;27.83;14.97;;;10.10;99.90;;;;;;4974308;28;20190;-63
2022/10/03 02:12:09;;;;;;;32.20;14.87;;;10.10;99.90;;;;;;4974447;28;20775;-62
2022/10/03 02:14:51;;;;;;;27.17;14.50;;;10.10;99.90;;;;;;4973664;28;20202;-63
2022/10/03 02:17:51;;;;;;;26.13;15.13;;;10.10;99.90;;;;;;4974264;28;20187;-63
2022/10/03 02:20:26;;;;;;;26.70;15.43;;;10.10;99.90;;;;;;4964954;28;20219;-62
2022/10/03 02:22:57;;;;;;;24.93;15.20;;;10.20;99.90;;;;;;4955099;29;20190;-66
2022/10/03 02:25:35;;;;;;;24.60;14.10;;;10.10;99.90;;;;;;4954723;29;20242;-65
2022/10/03 02:28:29;;;;;;;28.07;14.33;;;10.10;99.90;;;;;;4954162;29;20573;-65
2022/10/03 02:31:37;;;;;;;26.13;14.27;;;10.10;99.90;;;;;;4963981;28;20233;-65
2022/10/03 02:34:24;;;;;;;30.07;14.73;;;10.10;99.90;;;;;;4949877;28;20558;-65
2022/10/03 02:37:26;;;;;;;27.80;14.50;;;10.10;99.90;;;;;;4972117;28;20225;-65
2022/10/03 02:40:28;;;;;;;26.67;14.53;;;10.10;99.90;;;;;;4990172;28;20229;-65
2022/10/03 02:43:18;;;;;;;26.50;14.33;;;10.00;99.90;;;;;;4993098;28;20193;-64
2022/10/03 02:46:22;;;;;;;25.13;13.63;;;10.00;99.90;;;;;;4975825;28;20210;-64
2022/10/03 02:49:30;;;;;;;25.63;14.87;;;10.00;99.90;;;;;;4957570;28;20210;-64
2022/10/03 02:52:13;;;;;;;28.97;13.77;;;10.00;99.90;;;;;;4973757;28;20191;-64
2022/10/03 02:55:05;;;;;;;32.77;14.90;;;10.00;99.90;;;;;;4978372;28;20543;-64
2022/10/03 02:58:13;;;;;;;27.33;14.40;;;10.00;99.90;;;;;;4975855;28;20188;-64
2022/10/03 03:01:16;;;;;;;27.07;15.23;;;10.00;99.90;;;;;;4992209;28;20209;-64
2022/10/03 03:04:15;;;;;;;27.90;14.83;;;9.90;99.90;;;;;;4991612;28;20186;-64
2022/10/03 03:07:09;;;;;;;24.53;15.30;;;10.00;99.90;;;;;;4954375;29;20223;-64
2022/10/03 03:10:05;;;;;;;26.53;15.27;;;10.00;99.90;;;;;;4954389;29;20199;-64
2022/10/03 03:13:09;;;;;;;30.47;14.63;;;9.90;99.90;;;;;;4954546;29;20655;-64
2022/10/03 03:15:59;;;;;;;26.57;15.10;;;9.90;99.90;;;;;;4953655;29;20249;-64
2022/10/03 03:18:36;;;;;;;28.97;15.70;;;9.90;99.90;;;;;;4954153;29;20218;-64
2022/10/03 03:21:18;;;;;;;30.93;15.37;;;9.90;99.90;;;;;;4957361;28;20270;-64
2022/10/03 03:24:09;;;;;;;28.37;15.60;;;9.90;99.90;;;;;;4973254;28;20225;-64
2022/10/03 03:26:59;;;;;;;26.80;15.40;;;9.80;99.90;;;;;;4973287;28;20218;-64
2022/10/03 03:29:40;;;;;;;25.20;14.27;;;9.80;99.90;;;;;;4973345;28;20197;-64
2022/10/03 03:32:20;;;;;;;28.03;14.40;;;9.80;99.90;;;;;;4973250;28;20202;-64
2022/10/03 03:34:59;;;;;;;32.50;14.17;;;9.80;99.90;;;;;;4953969;29;20651;-64
2022/10/03 03:37:36;;;;;;;26.07;14.63;;;9.80;99.90;;;;;;4953925;29;20183;-65
2022/10/03 03:40:31;;;;;;;24.77;15.10;;;9.80;99.90;;;;;;4972341;28;20241;-65
2022/10/03 03:43:18;;;;;;;27.70;14.10;;;9.70;99.90;;;;;;4973291;28;20559;-65
2022/10/03 03:45:59;;;;;;;29.10;14.57;;;9.70;99.90;;;;;;4972515;28;20234;-66
2022/10/03 03:48:47;;;;;;;26.50;14.87;;;9.70;99.90;;;;;;4973232;28;20190;-65
2022/10/03 03:51:23;;;;;;;24.40;14.20;;;9.70;99.90;;;;;;4973336;28;20198;-65
2022/10/03 03:54:18;;;;;;;28.20;14.97;;;9.70;99.90;;;;;;4972531;28;20546;-65
2022/10/03 03:57:02;;;;;;;23.70;14.13;;;9.70;99.90;;;;;;4972478;28;20599;-65
2022/10/03 03:59:45;;;;;;;28.50;14.63;;;9.60;99.90;;;;;;4973084;28;20214;-65
2022/10/03 04:02:28;;;;;;;28.87;14.87;;;9.60;99.90;;;;;;4973218;28;20193;-65
2022/10/03 04:05:12;;;;;;;33.97;14.83;;;9.70;99.90;;;;;;4972984;28;20206;-65
2022/10/03 04:07:59;;;;;;;23.07;14.27;;;9.60;99.90;;;;;;4973064;28;20198;-65
2022/10/03 04:10:41;;;;;;;27.83;14.40;;;9.60;99.90;;;;;;4973058;28;20195;-64
2022/10/03 04:13:35;;;;;;;25.47;14.03;;;9.60;99.90;;;;;;4975030;28;20206;-64
2022/10/03 04:19:28;;;;;;;22.93;13.70;;;9.60;99.90;;;;;;4954506;28;20226;-65
2022/10/03 04:22:28;;;;;;;23.37;14.03;;;9.50;99.90;;;;;;4976567;28;20510;-66
2022/10/03 04:25:32;;;;;;;35.00;13.20;;;9.50;99.90;;;;;;4976202;28;20214;-64
2022/10/03 04:28:33;;;;;;;24.47;13.73;;;9.50;99.90;;;;;;4963619;28;20213;-65
2022/10/03 04:31:15;;;;;;;27.13;13.97;;;9.50;99.90;;;;;;4975642;28;20198;-65
2022/10/03 04:33:59;;;;;;;20.20;13.40;;;9.50;99.90;;;;;;4975577;28;20681;-65
2022/10/03 04:37:09;;;;;;;26.20;13.00;;;9.50;99.90;;;;;;4976189;28;20222;-65
2022/10/03 04:39:47;;;;;;;25.07;13.40;;;9.40;99.90;;;;;;4975806;28;20237;-65
2022/10/03 04:42:27;;;;;;;27.27;13.73;;;9.40;99.90;;;;;;4956900;29;20636;-65
2022/10/03 04:45:19;;;;;;;26.07;12.80;;;9.40;99.90;;;;;;4956677;29;20234;-65
2022/10/03 04:47:53;;;;;;;23.37;13.40;;;9.40;99.90;;;;;;4973340;28;20202;-65
2022/10/03 04:50:32;;;;;;;22.10;12.83;;;9.40;99.90;;;;;;4975997;28;20186;-65
2022/10/03 04:53:18;;;;;;;24.70;13.47;;;9.30;99.90;;;;;;4975758;28;20190;-65
2022/10/03 04:55:51;;;;;;;26.67;13.53;;;9.30;99.90;;;;;;4975769;28;20230;-66
2022/10/03 04:58:30;;;;;;;23.37;13.73;;;9.30;99.90;;;;;;4975945;28;20557;-65
2022/10/03 05:01:11;;;;;;;27.00;13.17;;;9.30;99.90;;;;;;4958458;28;20221;-65
2022/10/03 05:03:53;;;;;;;23.30;13.60;;;9.30;99.90;;;;;;4975024;28;20202;-65
2022/10/03 05:06:33;;;;;;;22.87;15.27;;;9.30;99.90;;;;;;4975626;28;20215;-65
2022/10/03 05:09:20;;;;;;;28.90;16.37;;;9.20;99.90;;;;;;4975569;28;20186;-65
2022/10/03 05:11:58;;;;;;;29.13;18.27;;;9.20;99.90;;;;;;4975433;28;20262;-65
2022/10/03 05:14:49;;;;;;;24.37;15.60;;;9.20;99.90;;;;;;4975467;28;20265;-65
2022/10/03 05:17:23;;;;;;;29.40;15.60;;;9.20;99.90;;;;;;4975375;28;20198;-65
2022/10/03 05:20:10;;;;;;;31.57;15.33;;;9.20;99.90;;;;;;4974609;28;20667;-65
2022/10/03 05:22:47;;;;;;;25.20;14.73;;;9.10;99.90;;;;;;4978602;28;20202;-65
2022/10/03 05:25:24;;;;;;;24.83;14.57;;;9.10;99.90;;;;;;4993972;28;20217;-64
2022/10/03 05:28:04;;;;;;;27.37;14.73;;;9.10;99.90;;;;;;4993818;28;20225;-64
2022/10/03 05:30:43;;;;;;;21.77;13.87;;;9.10;99.90;;;;;;4994585;28;20185;-65
2022/10/03 05:33:22;;;;;;;22.60;13.77;;;9.10;99.90;;;;;;4955815;29;20191;-66
2022/10/03 05:36:10;;;;;;;22.77;12.93;;;9.10;99.90;;;;;;4955641;29;20226;-66
2022/10/03 05:39:02;;;;;;;22.03;13.17;;;9.00;99.90;;;;;;4974096;28;20594;-64
2022/10/03 05:41:34;;;;;;;21.30;13.33;;;9.00;99.90;;;;;;4994244;28;20225;-66
2022/10/03 05:44:09;;;;;;;24.97;13.70;;;9.00;99.90;;;;;;4994320;28;20186;-66
2022/10/03 05:46:56;;;;;;;25.27;13.33;;;9.00;99.90;;;;;;4994175;28;20701;-66
2022/10/03 05:49:45;;;;;;;29.20;14.00;;;8.90;99.90;;;;;;4994205;28;20677;-66
2022/10/03 05:52:33;;;;;;;21.23;13.03;;;8.90;99.90;;;;;;4994331;28;20197;-65
2022/10/03 05:55:17;;;;;;;20.30;13.23;;;8.90;99.90;;;;;;4982011;28;20246;-65
2022/10/03 05:58:25;;;;;;;23.63;13.70;;;8.90;99.90;;;;;;4972679;28;20198;-67
2022/10/03 06:01:20;;;;;;;19.00;12.50;;;8.90;99.90;;;;;;4974141;28;20222;-67
2022/10/03 06:04:00;;;;;;;21.07;14.23;;;8.90;99.90;;;;;;4985936;28;20213;-66
2022/10/03 06:06:48;;;;;;;23.93;13.83;;;9.00;99.90;;;;;;4983250;28;20594;-67
2022/10/03 06:09:44;;;;;;;23.60;14.10;;;9.00;99.90;;;;;;4974162;28;20560;-67
2022/10/03 06:12:20;;;;;;;22.50;14.50;;;9.00;99.90;;;;;;4973770;28;20213;-68
2022/10/03 06:15:31;;;;;;;22.07;13.60;;;9.00;99.90;;;;;;4980123;28;20209;-66
2022/10/03 06:18:12;;;;;;;30.33;15.07;;;9.00;99.90;;;;;;4933799;29;20192;-67
2022/10/03 06:21:15;;;;;;;27.77;15.70;;;9.10;99.90;;;;;;4985225;28;20252;-67
2022/10/03 06:24:09;;;;;;;23.17;13.57;;;9.00;99.90;;;;;;4993656;28;20198;-67
2022/10/03 06:27:13;;;;;;;25.40;12.53;;;9.10;99.90;;;;;;4990230;28;20218;-69
2022/10/03 06:30:04;;;;;;;28.33;14.43;;;9.10;99.90;;;;;;4973572;28;20206;-66
2022/10/03 06:33:01;;;;;;;29.73;14.03;;;9.20;99.90;;;;;;4989724;28;20559;-67
2022/10/03 06:36:11;;;;;;;22.77;12.90;;;9.20;99.90;;;;;;4993094;28;20217;-67
2022/10/03 06:39:18;;;;;;;29.77;13.97;;;9.20;99.90;;;;;;4973441;28;20217;-69
2022/10/03 06:42:32;;;;;;;26.07;13.27;;;9.30;99.90;;;;;;4963192;28;20225;-67
2022/10/03 06:45:36;;;;;;;22.60;11.03;;;9.30;99.90;;;;;;5065918;23;20230;-68
2022/10/03 06:48:24;;;;;;;22.97;11.43;;;9.30;99.90;;;;;;4973994;28;20221;-70
2022/10/03 06:51:15;;;;;;;20.10;11.10;;;9.30;99.90;;;;;;4992890;28;20696;-69
2022/10/03 06:54:15;;;;;;;22.27;11.40;;;9.40;99.90;;;;;;4993068;28;20535;-69
2022/10/03 06:57:11;;;;;;;24.43;12.37;;;9.40;99.90;;;;;;4992852;28;20585;-70
2022/10/03 07:00:03;;;;;;;22.40;13.47;;;9.50;99.90;;;;;;4987939;28;20209;-68
2022/10/03 07:03:00;;;;;;;24.83;12.67;;;9.50;99.90;;;;;;4968243;28;20237;-67
2022/10/03 07:06:07;;;;;;;27.60;13.43;;;9.60;99.90;;;;;;4975901;28;20218;-67
2022/10/03 07:09:05;;;;;;;24.20;12.37;;;9.60;99.90;;;;;;4993108;28;20197;-66
2022/10/03 07:11:48;;;;;;;27.00;11.13;;;9.70;99.90;;;;;;4993015;28;20225;-65
2022/10/03 07:14:46;;;;;;;21.00;10.70;;;9.80;99.90;;;;;;4993025;28;20258;-67
2022/10/03 07:17:33;;;;;;;21.97;11.67;;;9.90;99.90;;;;;;4987598;28;20300;-65
2022/10/03 07:20:35;;;;;;;21.83;10.63;;;10.00;99.90;;;;;;4992022;28;20202;-65
2022/10/03 07:23:40;;;;;;;21.57;10.83;;;10.00;99.90;;;;;;4988562;28;20208;-65
2022/10/03 07:26:38;;;;;;;23.00;10.07;;;10.10;99.90;;;;;;4992860;28;20225;-65
2022/10/03 07:29:37;;;;;;;19.40;10.77;;;10.10;99.90;;;;;;4993028;28;20186;-66
2022/10/03 07:32:30;;;;;;;20.47;10.73;;;10.10;99.90;;;;;;4992565;28;20209;-65
2022/10/03 07:38:59;;;;;;;17.93;9.93;;;10.20;99.90;;;;;;4977829;28;20205;-65
2022/10/03 07:41:55;;;;;;;18.27;9.00;;;10.30;99.90;;;;;;4989312;28;20772;-68
2022/10/03 07:45:08;;;;;;;18.67;9.17;;;10.40;99.90;;;;;;4985732;28;20221;-66
2022/10/03 07:48:16;;;;;;;17.10;8.77;;;10.50;99.90;;;;;;4953710;28;20203;-66
2022/10/03 07:51:06;;;;;;;20.60;8.90;;;10.50;99.90;;;;;;4955662;29;20622;-66
2022/10/03 07:54:07;;;;;;;20.00;8.30;;;10.60;99.90;;;;;;4990168;28;20206;-67
2022/10/03 07:57:14;;;;;;;16.20;8.33;;;10.60;99.90;;;;;;4971738;28;20696;-68
2022/10/03 08:00:07;;;;;;;17.50;8.57;;;10.70;99.90;;;;;;4975699;28;20205;-67
2022/10/03 08:03:24;;;;;;;17.10;7.68;;;10.80;99.90;;;;;;4996102;28;20214;-67
2022/10/03 08:06:23;;;;;;;26.02;7.95;;;10.80;99.90;;;;;;4985484;28;21252;-67
2022/10/03 08:09:34;;;;;;;16.10;7.57;;;10.90;99.90;;;;;;4993889;28;20209;-67
2022/10/03 08:12:28;;;;;;;19.70;7.60;;;10.80;99.90;;;;;;4977687;28;20206;-67
2022/10/03 08:15:03;;;;;;;13.75;7.20;;;10.80;99.90;;;;;;4989935;28;20598;-67
2022/10/03 08:18:06;;;;;;;14.25;7.95;;;10.80;99.90;;;;;;4995938;28;20197;-66
2022/10/03 08:20:53;;;;;;;11.98;7.18;;;10.80;99.90;;;;;;4996069;28;20208;-67
2022/10/03 08:23:56;;;;;;;14.95;7.63;;;11.00;99.90;;;;;;4995809;28;20221;-68
2022/10/03 08:26:42;;;;;;;20.80;7.95;;;11.00;99.90;;;;;;4995681;28;20217;-68
2022/10/03 08:29:30;;;;;;;15.68;7.07;;;11.10;99.90;;;;;;4976349;28;20194;-67
2022/10/03 08:32:40;;;;;;;17.10;6.68;;;11.20;99.90;;;;;;4976309;28;20539;-68
2022/10/03 08:35:43;;;;;;;13.50;6.72;;;11.20;99.90;;;;;;4976237;28;20298;-68
2022/10/03 08:38:42;;;;;;;14.15;5.93;;;11.30;99.90;;;;;;4976117;28;20187;-67
2022/10/03 08:41:52;;;;;;;13.23;6.72;;;11.40;99.90;;;;;;4951763;28;20555;-67
2022/10/03 08:44:54;;;;;;;13.07;6.50;;;11.50;99.90;;;;;;4980008;28;20222;-67
2022/10/03 08:48:04;;;;;;;15.68;5.90;;;11.70;99.90;;;;;;4995601;28;20201;-67
2022/10/03 08:51:14;;;;;;;41.58;24.35;;;11.70;99.90;;;;;;4976391;28;20205;-69
2022/10/03 08:54:08;;;;;;;14.15;8.30;;;11.80;99.90;;;;;;4954310;28;20206;-69
2022/10/03 08:56:53;;;;;;;11.70;5.43;;;12.00;99.90;;;;;;4995264;28;20701;-68
2022/10/03 08:59:54;;;;;;;10.30;4.97;;;12.20;99.90;;;;;;4995017;28;20737;-69
2022/10/03 09:03:03;;;;;;;9.63;5.57;;;12.20;99.90;;;;;;4994001;28;20222;-68
2022/10/03 09:06:28;;;;;;;14.82;6.00;;;12.30;99.90;;;;;;4995162;28;20562;-69
2022/10/03 09:09:25;;;;;;;10.25;5.03;;;12.10;99.90;;;;;;4995130;28;20189;-69
2022/10/03 09:12:30;;;;;;;11.43;6.05;;;12.10;99.90;;;;;;4995095;28;20201;-69
2022/10/03 09:15:26;;;;;;;9.80;4.45;;;12.10;99.90;;;;;;4994873;28;20229;-69
2022/10/03 09:18:14;;;;;;;10.80;4.95;;;12.20;99.90;;;;;;4994123;28;20262;-68
2022/10/03 09:21:22;;;;;;;12.40;4.78;;;12.20;99.90;;;;;;4994856;28;20639;-68
2022/10/03 09:24:22;;;;;;;9.75;4.68;;;12.20;99.90;;;;;;4994625;28;20228;-69
2022/10/03 09:27:31;;;;;;;10.77;4.10;;;12.20;99.90;;;;;;4984958;28;20226;-69
2022/10/03 09:30:34;;;;;;;9.27;3.72;;;12.30;99.90;;;;;;4994698;28;20182;-69
2022/10/03 09:33:45;;;;;;;8.82;3.70;;;12.30;99.90;;;;;;4994493;28;20197;-68
2022/10/03 09:36:54;;;;;;;10.27;4.40;;;12.30;99.90;;;;;;4993264;28;20221;-69
2022/10/03 09:39:59;;;;;;;8.27;3.85;;;12.30;99.90;;;;;;4994415;28;20188;-68
2022/10/03 09:43:04;;;;;;;9.27;4.00;;;12.30;99.90;;;;;;4959689;28;20250;-67
2022/10/03 09:46:23;;;;;;;10.93;4.10;;;12.40;99.90;;;;;;4984742;28;20266;-69
2022/10/03 09:49:28;;;;;;;11.10;4.15;;;12.70;99.90;;;;;;4934548;29;20296;-69
2022/10/03 09:52:13;;;;;;;12.80;3.83;;;12.80;99.90;;;;;;4991696;28;20205;-69
2022/10/03 09:55:05;;;;;;;13.65;4.05;;;12.80;99.90;;;;;;4994108;28;20202;-68
2022/10/03 09:58:15;;;;;;;12.98;4.45;;;12.80;99.90;;;;;;4994260;28;20193;-69
2022/10/03 10:01:12;;;;;;;9.88;3.70;;;12.70;99.90;;;;;;4994127;28;20198;-68
2022/10/03 10:04:19;;;;;;;11.55;4.07;;;12.70;99.90;;;;;;4993073;28;20678;-68
2022/10/03 10:07:35;;;;;;;7.50;3.42;;;12.90;99.90;;;;;;4974821;28;20174;-69
2022/10/03 10:10:41;;;;;;;7.40;2.95;;;13.00;99.90;;;;;;4984473;28;20205;-68
2022/10/03 10:13:25;;;;;;;9.93;3.13;;;13.30;99.90;;;;;;4994111;28;20205;-68
2022/10/03 10:16:19;;;;;;;7.70;2.95;;;13.60;99.90;;;;;;4993937;28;20233;-69
2022/10/03 10:19:17;;;;;;;6.22;2.40;;;13.70;99.90;;;;;;4994024;28;20194;-70
2022/10/03 10:22:30;;;;;;;12.75;3.33;;;13.90;99.90;;;;;;4993845;28;20654;-69
2022/10/03 10:25:31;;;;;;;11.25;3.10;;;13.90;99.90;;;;;;4959215;28;20218;-67
2022/10/03 10:28:47;;;;;;;8.32;2.97;;;14.00;99.90;;;;;;4992628;28;20217;-69
2022/10/03 10:32:00;;;;;;;7.70;3.05;;;14.00;99.90;;;;;;4974358;28;20198;-69
2022/10/03 10:34:59;;;;;;;7.93;3.47;;;14.00;99.90;;;;;;4996276;28;20198;-68
2022/10/03 10:38:03;;;;;;;7.10;2.38;;;14.10;99.90;;;;;;5002771;28;20212;-68
2022/10/03 10:41:15;;;;;;;6.38;2.28;;;14.10;99.90;;;;;;4987848;28;20209;-68
2022/10/03 10:44:23;;;;;;;6.43;2.28;;;14.10;99.90;;;;;;4990185;28;20248;-69
2022/10/03 10:47:13;;;;;;;9.02;2.80;;;14.00;99.90;;;;;;4963726;28;20221;-68
2022/10/03 10:50:30;;;;;;;8.45;4.25;;;13.90;99.90;;;;;;4993334;28;20194;-68
2022/10/03 10:53:38;;;;;;;4.60;1.95;;;14.10;99.90;;;;;;4975571;28;20232;-68
2022/10/03 10:56:44;;;;;;;8.00;2.40;;;14.00;99.90;;;;;;4993156;28;20303;-69
2022/10/03 10:59:57;;;;;;;5.32;1.90;;;13.90;99.90;;;;;;4993359;28;20202;-69
2022/10/03 11:03:21;;;;;;;5.90;1.90;;;13.80;99.90;;;;;;4973602;28;20543;-69
2022/10/03 11:06:38;;;;;;;4.75;2.22;;;13.80;99.90;;;;;;4978445;28;20229;-68
2022/10/03 11:09:35;;;;;;;5.93;1.85;;;13.70;99.90;;;;;;4993027;28;20186;-68
2022/10/03 11:12:59;;;;;;;8.38;2.38;;;13.60;99.90;;;;;;4993055;28;20194;-67
2022/10/03 11:16:22;;;;;;;5.70;2.00;;;13.50;99.90;;;;;;4992921;28;20209;-69
2022/10/03 11:19:29;;;;;;;9.10;2.78;;;13.40;99.90;;;;;;4987367;28;20210;-69
2022/10/03 11:22:37;;;;;;;7.93;2.28;;;13.40;99.90;;;;;;4995645;28;20215;-69
2022/10/03 11:25:52;;;;;;;5.80;2.70;;;13.40;99.90;;;;;;4979486;28;20248;-69
2022/10/03 11:29:00;;;;;;;8.57;2.50;;;13.40;99.90;;;;;;4996839;28;20200;-68
2022/10/03 11:32:07;;;;;;;7.72;2.78;;;13.40;99.90;;;;;;4996783;28;20193;-70
2022/10/03 11:35:27;;;;;;;7.82;2.58;;;13.40;99.90;;;;;;4995803;28;20209;-69
2022/10/03 11:38:04;;;;;;;4.93;2.28;;;13.60;99.90;;;;;;4936688;29;20216;-70
2022/10/03 11:40:44;;;;;;;4.45;2.40;;;14.00;99.90;;;;;;4936774;29;20577;-69
2022/10/03 11:43:48;;;;;;;5.28;2.20;;;14.20;99.90;;;;;;4972815;28;20205;-70
2022/10/03 11:46:29;;;;;;;7.45;2.13;;;14.50;99.90;;;;;;4994862;28;20236;-70
2022/10/03 11:49:05;;;;;;;5.80;2.17;;;14.90;99.90;;;;;;4996482;28;20209;-70
2022/10/03 11:51:46;;;;;;;5.22;2.03;;;15.30;99.90;;;;;;4995585;28;20209;-70
2022/10/03 11:54:26;;;;;;;3.78;1.75;;;15.30;99.90;;;;;;4996554;28;20197;-69
2022/10/03 11:57:07;;;;;;;4.05;1.70;;;15.20;99.90;;;;;;4996420;28;20190;-69
2022/10/03 11:59:56;;;;;;;7.75;1.58;;;15.10;99.90;;;;;;4996482;28;20189;-70
2022/10/03 12:02:51;;;;;;;4.40;1.70;;;15.00;99.90;;;;;;4996447;28;20190;-69
2022/10/03 12:05:28;;;;;;;6.85;2.28;;;15.00;99.90;;;;;;4970364;28;20248;-68
2022/10/03 12:11:08;;;;;;;5.03;1.67;;;14.80;99.90;;;;;;4996250;28;20193;-69
2022/10/03 12:13:49;;;;;;;7.07;1.80;;;14.70;99.90;;;;;;4996214;28;20193;-69
2022/10/03 12:16:52;;;;;;;6.90;2.35;;;14.60;99.90;;;;;;4964868;28;20224;-68
2022/10/03 12:19:29;;;;;;;5.57;1.70;;;14.60;99.90;;;;;;4978831;28;20570;-70
2022/10/03 12:22:07;;;;;;;4.75;1.50;;;14.80;99.90;;;;;;4996052;28;20676;-69
2022/10/03 12:24:41;;;;;;;6.53;1.90;;;14.80;99.90;;;;;;4996106;28;20214;-70
2022/10/03 12:27:22;;;;;;;5.65;2.08;;;15.00;99.90;;;;;;4976720;28;20191;-70
2022/10/03 12:29:57;;;;;;;5.00;1.60;;;15.10;99.90;;;;;;4943145;28;20203;-70
2022/10/03 12:32:32;;;;;;;6.65;1.33;;;15.00;99.90;;;;;;4976045;28;20191;-68
2022/10/03 12:35:15;;;;;;;6.07;1.63;;;14.80;99.90;;;;;;4976302;28;20229;-68
2022/10/03 12:37:52;;;;;;;4.85;2.30;;;14.70;99.90;;;;;;4993331;28;20197;-69
2022/10/03 12:40:26;;;;;;;7.40;1.73;;;14.60;99.90;;;;;;4995651;28;20182;-69
2022/10/03 12:43:04;;;;;;;5.32;2.33;;;14.60;99.90;;;;;;4994734;28;20565;-69
2022/10/03 12:45:39;;;;;;;3.08;1.83;;;14.70;99.90;;;;;;4995393;28;20221;-69
2022/10/03 12:48:26;;;;;;;7.00;1.77;;;14.80;99.90;;;;;;4994769;28;20328;-69
2022/10/03 12:51:03;;;;;;;4.13;1.83;;;14.80;99.90;;;;;;4995489;28;20660;-70
2022/10/03 12:53:40;;;;;;;4.88;1.90;;;14.80;99.90;;;;;;4995393;28;20181;-70
2022/10/03 12:56:21;;;;;;;3.45;1.70;;;14.90;99.90;;;;;;4995371;28;20216;-71
2022/10/03 12:58:55;;;;;;;6.50;1.98;;;15.20;99.90;;;;;;4994014;28;20212;-70
2022/10/03 13:01:39;;;;;;;4.30;1.58;;;15.40;99.90;;;;;;4977968;28;20684;-70
2022/10/03 13:04:20;;;;;;;3.35;1.48;;;15.50;99.90;;;;;;4995149;28;20569;-70
2022/10/03 13:07:07;;;;;;;6.25;1.75;;;15.50;99.90;;;;;;4995041;28;20221;-70
2022/10/03 13:09:58;;;;;;;4.25;1.70;;;15.40;99.90;;;;;;4975788;28;20198;-69
2022/10/03 13:12:39;;;;;;;5.13;1.88;;;15.10;99.90;;;;;;4975654;28;20198;-69
2022/10/03 13:15:44;;;;;;;5.32;1.73;;;14.90;99.90;;;;;;4975538;28;20713;-71
2022/10/03 13:18:35;;;;;;;2.85;1.45;;;14.70;99.90;;;;;;4975577;28;20187;-69
2022/10/03 13:21:09;;;;;;;6.30;1.88;;;14.40;99.90;;;;;;4974117;28;20202;-69
2022/10/03 13:24:03;;;;;;;5.40;1.85;;;14.40;99.90;;;;;;4975405;28;20673;-70
2022/10/03 13:26:48;;;;;;;6.50;1.58;;;14.20;99.90;;;;;;4975129;28;20234;-70
2022/10/03 13:29:33;;;;;;;5.18;1.80;;;14.20;99.90;;;;;;4975322;28;20201;-69
2022/10/03 13:32:09;;;;;;;4.60;1.90;;;14.20;99.90;;;;;;4975122;28;20217;-69
2022/10/03 13:34:58;;;;;;;3.58;1.77;;;14.10;99.90;;;;;;4990254;28;20217;-70
2022/10/03 13:37:38;;;;;;;4.32;1.67;;;14.10;99.90;;;;;;4994478;28;20190;-69
2022/10/03 13:40:14;;;;;;;2.95;1.80;;;14.20;99.90;;;;;;4994495;28;20548;-68
2022/10/03 13:42:52;;;;;;;4.28;1.83;;;14.30;99.90;;;;;;4994426;28;20201;-68
2022/10/03 13:45:26;;;;;;;3.95;1.58;;;14.40;99.90;;;;;;4992878;28;20230;-70
2022/10/03 13:48:00;;;;;;;4.60;1.30;;;14.70;99.90;;;;;;4994377;28;20190;-69
2022/10/03 13:50:35;;;;;;;2.17;1.33;;;14.80;99.90;;;;;;4993645;28;20580;-70
2022/10/03 13:53:12;;;;;;;3.65;1.40;;;14.90;99.90;;;;;;4994396;28;20200;-69
2022/10/03 13:55:48;;;;;;;4.75;1.33;;;15.00;99.90;;;;;;4994147;28;20218;-69
2022/10/03 13:58:43;;;;;;;3.50;1.30;;;15.10;99.90;;;;;;4994357;28;20185;-70
2022/10/03 14:01:33;;;;;;;6.00;1.45;;;15.10;99.90;;;;;;4994308;28;20688;-69
2022/10/03 14:04:33;;;;;;;4.07;1.25;;;15.00;99.90;;;;;;4994107;28;20182;-69
2022/10/03 14:07:13;;;;;;;4.00;1.27;;;15.10;99.90;;;;;;4991808;28;20592;-70
2022/10/03 14:10:02;;;;;;;6.13;1.20;;;15.30;99.90;;;;;;4994145;28;20186;-72
2022/10/03 14:12:43;;;;;;;3.92;1.40;;;15.30;99.90;;;;;;4993921;28;20677;-70
2022/10/03 14:15:33;;;;;;;4.82;1.10;;;15.40;99.90;;;;;;4976454;28;20225;-69
2022/10/03 14:18:16;;;;;;;6.05;1.50;;;15.30;99.90;;;;;;4993879;28;20190;-70
2022/10/03 14:21:14;;;;;;;2.72;1.27;;;15.20;99.90;;;;;;4993909;28;20193;-70
2022/10/03 14:23:49;;;;;;;7.80;1.50;;;15.20;99.90;;;;;;4993273;28;20198;-68
2022/10/03 14:26:25;;;;;;;2.38;1.00;;;15.10;99.90;;;;;;4974189;28;20245;-72
2022/10/03 14:28:58;;;;;;;4.18;1.10;;;15.00;99.90;;;;;;4974252;28;20193;-71
2022/10/03 14:31:34;;;;;;;2.17;1.10;;;14.90;99.90;;;;;;4974248;28;20202;-70
2022/10/03 14:34:11;;;;;;;3.38;1.17;;;14.80;99.90;;;;;;4974031;28;20630;-69
2022/10/03 14:36:46;;;;;;;3.65;1.50;;;14.70;99.90;;;;;;4974026;28;20583;-68
2022/10/03 14:39:34;;;;;;;2.90;1.50;;;14.70;99.90;;;;;;4974083;28;20670;-70
2022/10/03 14:42:32;;;;;;;2.17;1.20;;;14.60;99.90;;;;;;4984572;28;20202;-69
2022/10/03 14:45:06;;;;;;;6.28;1.30;;;14.50;99.90;;;;;;4975795;28;20575;-69
2022/10/03 14:47:38;;;;;;;4.43;1.02;;;14.50;99.90;;;;;;4993247;28;20684;-69
2022/10/03 14:50:16;;;;;;;2.63;1.35;;;14.40;99.90;;;;;;4993278;28;20186;-69